Time;durP1;ratioP1;P1;durP2;ratioP2;P2;SDS_P1;SDS_P2;PMS_P1;PMS_P2;Temp;Humidity;BMP_temperature;BMP_pressure;BME280_temperature;BME280_humidity;BME280_pressure;Samples;Min_cycle;Max_cycle;Signal;HPM_P1;HPM_P2
2022/07/12 00:01:55;;;;;;;3.10;2.90;;;;;;;23.03;63.93;98941.94;5110022;28;20023;-63
2022/07/12 00:04:21;;;;;;;3.83;3.38;;;;;;;22.93;64.50;98933.97;5124409;28;20069;-64
2022/07/12 00:06:46;;;;;;;4.43;3.45;;;;;;;23.24;63.33;98932.22;5124463;28;20047;-64
2022/07/12 00:09:13;;;;;;;5.25;3.20;;;;;;;22.90;64.51;98926.31;5107441;28;20028;-64
2022/07/12 00:11:38;;;;;;;6.25;3.42;;;;;;;22.69;65.20;98927.16;5103804;28;20184;-64
2022/07/12 00:14:05;;;;;;;3.80;3.25;;;;;;;22.91;64.67;98928.81;5103859;28;20053;-64
2022/07/12 00:16:31;;;;;;;5.63;3.70;;;;;;;22.91;64.65;98920.06;5103686;28;20028;-64
2022/07/12 00:18:57;;;;;;;4.25;3.85;;;;;;;22.90;64.98;98928.94;5103955;28;20066;-64
2022/07/12 00:21:22;;;;;;;4.53;3.70;;;;;;;22.70;65.66;98931.50;5102715;28;20032;-64
2022/07/12 00:23:48;;;;;;;7.43;4.28;;;;;;;22.84;65.47;98934.75;5103960;28;20031;-64
2022/07/12 00:26:14;;;;;;;3.95;3.65;;;;;;;22.97;64.58;98931.91;5112050;28;20020;-64
2022/07/12 00:28:39;;;;;;;4.78;3.58;;;;;;;22.66;65.94;98929.22;5124019;28;20043;-63
2022/07/12 00:31:05;;;;;;;4.75;3.45;;;;;;;22.94;64.92;98933.00;5124094;28;20028;-64
2022/07/12 00:33:31;;;;;;;4.53;3.42;;;;;;;22.56;66.31;98916.81;5104494;28;20059;-64
2022/07/12 00:35:56;;;;;;;4.72;3.40;;;;;;;22.68;65.85;98922.84;5117968;28;20020;-64
2022/07/12 00:38:22;;;;;;;5.95;3.42;;;;;;;22.54;66.28;98913.44;5122130;28;20217;-63
2022/07/12 00:40:49;;;;;;;3.78;3.40;;;;;;;22.39;66.95;98912.09;5118883;28;20035;-64
2022/07/12 00:43:15;;;;;;;6.78;4.15;;;;;;;22.22;67.47;98916.09;5103541;28;20123;-64
2022/07/12 00:45:40;;;;;;;5.00;3.67;;;;;;;22.37;67.09;98924.56;5103291;28;20020;-64
2022/07/12 00:48:07;;;;;;;4.70;4.07;;;;;;;22.32;67.40;98918.78;5103240;28;20046;-63
2022/07/12 00:50:33;;;;;;;4.35;3.90;;;;;;;22.23;67.89;98904.56;5113709;28;20347;-64
2022/07/12 00:52:58;;;;;;;4.95;4.40;;;;;;;22.28;67.79;98915.59;5117487;28;20028;-64
2022/07/12 00:55:24;;;;;;;6.05;4.10;;;;;;;22.26;67.81;98922.81;5102777;28;20082;-62
2022/07/12 00:57:51;;;;;;;4.35;3.95;;;;;;;21.98;68.92;98911.03;5101241;28;20028;-63
2022/07/12 01:00:19;;;;;;;5.43;4.10;;;;;;;21.92;69.24;98904.47;5103199;28;20026;-64
2022/07/12 01:02:46;;;;;;;4.35;3.80;;;;;;;22.03;68.94;98904.44;5114542;28;20069;-64
2022/07/12 01:05:13;;;;;;;5.55;4.60;;;;;;;21.97;68.90;98896.19;5120134;28;20343;-64
2022/07/12 01:07:39;;;;;;;4.90;4.40;;;;;;;21.98;68.95;98889.94;5123331;28;20308;-63
2022/07/12 01:10:05;;;;;;;5.30;4.45;;;;;;;21.88;69.38;98880.13;5123293;28;20041;-63
2022/07/12 01:12:32;;;;;;;4.68;4.20;;;;;;;22.08;68.62;98868.94;5104298;28;20028;-63
2022/07/12 01:14:58;;;;;;;5.82;4.45;;;;;;;22.04;69.17;98873.63;5103137;28;20062;-63
2022/07/12 01:17:26;;;;;;;7.07;4.40;;;;;;;21.67;70.01;98847.63;5102633;28;20020;-62
2022/07/12 01:19:53;;;;;;;4.60;4.20;;;;;;;22.09;68.70;98857.41;5107734;28;20047;-64
2022/07/12 01:22:24;;;;;;;5.57;4.30;;;;;;;21.89;69.57;98831.72;5123109;28;20027;-63
2022/07/12 01:24:50;;;;;;;5.45;4.38;;;;;;;22.09;68.87;98839.78;5103029;28;20024;-63
2022/07/12 01:27:16;;;;;;;4.45;4.05;;;;;;;21.85;69.64;98842.66;5102761;28;20035;-63
2022/07/12 01:29:42;;;;;;;4.45;3.97;;;;;;;21.86;69.76;98852.22;5103027;28;20241;-64
2022/07/12 01:32:28;;;;;;;5.18;4.05;;;;;;;22.10;69.02;98854.63;5102724;28;20039;-64
2022/07/12 01:35:03;;;;;;;5.32;4.20;;;;;;;21.79;69.26;98815.00;5108071;28;20015;-64
2022/07/12 01:37:32;;;;;;;4.78;4.15;;;;;;;21.74;69.99;98817.16;5123433;28;20094;-64
2022/07/12 01:39:59;;;;;;;8.07;4.32;;;;;;;21.93;70.25;98849.94;5122508;28;20411;-64
2022/07/12 01:42:27;;;;;;;5.47;4.57;;;;;;;21.76;70.88;98851.31;5122974;28;20046;-64
2022/07/12 01:44:53;;;;;;;5.22;4.32;;;;;;;21.87;70.78;98838.91;5122989;28;20031;-64
2022/07/12 01:47:21;;;;;;;4.22;3.83;;;;;;;21.64;71.42;98834.69;5103120;28;20024;-64
2022/07/12 01:49:47;;;;;;;7.00;5.25;;;;;;;21.71;71.17;98833.25;5102563;28;20035;-64
2022/07/12 01:52:13;;;;;;;5.32;4.82;;;;;;;21.87;70.57;98820.44;5102983;28;20016;-64
2022/07/12 01:54:39;;;;;;;5.50;5.00;;;;;;;21.91;70.86;98823.69;5102356;28;20027;-64
2022/07/12 01:57:05;;;;;;;6.90;5.00;;;;;;;21.86;70.91;98817.94;5117399;28;20023;-62
2022/07/12 01:59:32;;;;;;;6.28;5.32;;;;;;;21.77;71.33;98816.91;5122628;28;20043;-64
2022/07/12 02:01:58;;;;;;;6.72;5.70;;;;;;;21.75;71.89;98829.38;5117365;28;20020;-64
2022/07/12 02:04:24;;;;;;;6.32;5.35;;;;;;;21.79;71.82;98819.41;5102448;28;20039;-64
2022/07/12 02:06:50;;;;;;;6.28;5.70;;;;;;;21.77;71.80;98822.19;5102877;28;20020;-62
2022/07/12 02:09:17;;;;;;;9.15;5.72;;;;;;;21.62;72.41;98821.66;5104026;28;20031;-63
2022/07/12 02:11:44;;;;;;;6.68;5.50;;;;;;;21.59;72.50;98802.59;5105990;28;20020;-64
2022/07/12 02:14:12;;;;;;;6.40;5.80;;;;;;;21.76;72.26;98807.31;5106202;28;20036;-63
2022/07/12 02:16:41;;;;;;;6.25;5.65;;;;;;;21.78;72.09;98797.50;5106373;28;20221;-64
2022/07/12 02:19:07;;;;;;;9.32;5.78;;;;;;;21.87;71.65;98791.47;5106012;28;20099;-64
2022/07/12 02:21:33;;;;;;;6.35;5.35;;;;;;;21.83;72.01;98782.16;5104588;28;20095;-63
2022/07/12 02:23:59;;;;;;;6.40;5.80;;;;;;;21.86;71.64;98778.41;5105874;28;20016;-64
2022/07/12 02:26:25;;;;;;;7.70;5.82;;;;;;;21.88;71.29;98777.31;5115005;28;20024;-64
2022/07/12 02:28:51;;;;;;;6.25;5.70;;;;;;;21.87;71.60;98762.47;5121826;28;20058;-64
2022/07/12 02:31:16;;;;;;;6.50;5.50;;;;;;;21.84;71.54;98752.16;5105877;28;20023;-64
2022/07/12 02:33:42;;;;;;;9.43;6.07;;;;;;;22.01;70.54;98739.38;5105645;28;20028;-64
2022/07/12 02:36:08;;;;;;;6.70;5.53;;;;;;;21.95;71.01;98745.16;5105628;28;20036;-64
2022/07/12 02:38:34;;;;;;;5.78;4.72;;;;;;;21.90;70.36;98756.09;5131220;27;20064;-64
2022/07/12 02:40:59;;;;;;;8.65;5.22;;;;;;;22.00;70.40;98741.16;5120360;28;20058;-63
2022/07/12 02:43:29;;;;;;;5.97;5.07;;;;;;;22.00;69.91;98750.91;5106264;28;20028;-65
2022/07/12 02:46:11;;;;;;;9.98;5.70;;;;;;;21.78;70.05;98721.06;5117880;28;20051;-64
2022/07/12 02:48:37;;;;;;;;;;;;;;;22.09;69.87;98755.41;5105734;28;20034;-65
2022/07/12 02:51:04;;;;;;;11.73;5.32;;;;;;;22.05;70.10;98751.34;5119768;28;19908;-63
2022/07/12 02:53:30;;;;;;;6.63;5.47;;;;;;;22.20;69.27;98747.41;5116326;28;20244;-65
2022/07/12 02:55:56;;;;;;;8.18;5.47;;;;;;;22.12;69.56;98738.47;5105083;28;20023;-64
2022/07/12 02:58:22;;;;;;;6.80;5.90;;;;;;;22.11;70.23;98750.81;5104195;28;20022;-64
2022/07/12 03:00:48;;;;;;;6.80;5.97;;;;;;;22.34;69.55;98756.81;5083711;28;20039;-65
2022/07/12 03:03:15;;;;;;;6.10;5.50;;;;;;;22.12;70.44;98760.41;5100901;28;20031;-64
2022/07/12 03:05:42;;;;;;;7.32;5.68;;;;;;;22.21;70.21;98761.44;5120736;28;20054;-64
2022/07/12 03:08:09;;;;;;;8.80;6.15;;;;;;;22.28;69.88;98773.13;5105066;28;20024;-64
2022/07/12 03:10:35;;;;;;;6.72;6.13;;;;;;;22.21;70.42;98778.09;5105019;28;20062;-64
2022/07/12 03:13:01;;;;;;;10.30;5.72;;;;;;;22.27;69.98;98765.34;5105084;28;20325;-64
2022/07/12 03:15:30;;;;;;;10.55;6.50;;;;;;;22.14;70.23;98760.28;5122242;28;20027;-65
2022/07/12 03:17:57;;;;;;;7.13;5.95;;;;;;;22.38;69.62;98771.41;5112110;28;20244;-65
2022/07/12 03:20:23;;;;;;;9.13;6.35;;;;;;;22.30;70.13;98771.19;5104171;28;20239;-64
2022/07/12 03:22:51;;;;;;;8.82;6.30;;;;;;;22.29;70.04;98769.53;5108499;28;20043;-64
2022/07/12 03:25:18;;;;;;;6.65;6.03;;;;;;;22.28;69.78;98761.75;5125181;28;20030;-65
2022/07/12 03:27:44;;;;;;;7.05;6.38;;;;;;;22.49;69.56;98780.19;5105575;28;20095;-65
2022/07/12 03:30:10;;;;;;;7.68;5.88;;;;;;;22.67;68.94;98783.06;5104828;28;20028;-65
2022/07/12 03:32:36;;;;;;;6.95;5.75;;;;;;;22.52;69.33;98778.16;5104450;28;20024;-65
2022/07/12 03:35:02;;;;;;;8.30;6.03;;;;;;;22.38;69.66;98781.13;5104730;28;20024;-65
2022/07/12 03:37:58;;;;;;;9.23;6.35;;;;;;;22.34;69.83;98782.38;5105158;28;20059;-65
2022/07/12 03:40:24;;;;;;;7.22;6.20;;;;;;;22.28;69.87;98770.50;5115338;28;20050;-64
2022/07/12 03:42:52;;;;;;;7.60;6.80;;;;;;;22.14;69.63;98723.38;5104192;28;20373;-65
2022/07/12 03:45:17;;;;;;;8.15;6.22;;;;;;;22.37;69.28;98771.53;5117556;28;20050;-65
2022/07/12 03:47:43;;;;;;;7.55;5.97;;;;;;;22.22;70.30;98774.50;5104452;28;20040;-64
2022/07/12 03:50:13;;;;;;;7.22;6.13;;;;;;;22.15;69.46;98723.22;5110605;28;20121;-64
2022/07/12 03:52:40;;;;;;;7.32;6.32;;;;;;;22.43;70.19;98762.28;5124481;28;20035;-65
2022/07/12 03:55:07;;;;;;;8.95;6.55;;;;;;;22.33;69.85;98759.56;5093813;28;20042;-64
2022/07/12 03:57:32;;;;;;;6.45;5.75;;;;;;;22.36;70.15;98767.22;5103936;28;20019;-64
2022/07/12 03:59:58;;;;;;;9.27;6.47;;;;;;;22.24;70.58;98769.09;5103971;28;20027;-64
2022/07/12 04:02:24;;;;;;;10.80;6.57;;;;;;;22.38;70.40;98767.94;5112203;28;20224;-65
2022/07/12 04:04:50;;;;;;;11.43;5.90;;;;;;;22.42;69.84;98769.38;5121025;28;20020;-62
2022/07/12 04:07:16;;;;;;;7.97;6.25;;;;;;;22.52;69.70;98777.31;5103959;28;20057;-64
2022/07/12 04:09:42;;;;;;;8.55;6.50;;;;;;;22.34;69.81;98772.63;5103683;28;20095;-64
2022/07/12 04:12:08;;;;;;;8.75;6.20;;;;;;;22.59;69.07;98770.56;5103702;28;20050;-65
2022/07/12 04:14:33;;;;;;;6.40;5.80;;;;;;;22.69;69.24;98770.59;5103604;28;20034;-65
2022/07/12 04:16:59;;;;;;;8.00;6.13;;;;;;;22.61;68.65;98773.88;5103561;28;20024;-65
2022/07/12 04:19:27;;;;;;;7.82;6.28;;;;;;;22.56;69.13;98770.78;5103807;28;20024;-65
2022/07/12 04:21:55;;;;;;;7.00;6.18;;;;;;;22.66;68.98;98784.03;5102377;28;20281;-63
2022/07/12 04:24:21;;;;;;;8.88;6.15;;;;;;;22.66;68.62;98791.94;5119735;28;20036;-63
2022/07/12 04:26:48;;;;;;;7.28;6.10;;;;;;;22.56;68.73;98795.41;5112427;28;20020;-63
2022/07/12 04:29:14;;;;;;;8.82;6.97;;;;;;;22.67;68.29;98777.78;5103543;28;20024;-63
2022/07/12 04:31:39;;;;;;;6.78;6.05;;;;;;;22.90;67.63;98802.19;5102851;28;20553;-64
2022/07/12 04:34:05;;;;;;;8.75;6.50;;;;;;;22.88;67.11;98789.13;5103112;28;20026;-64
2022/07/12 04:36:31;;;;;;;6.53;5.80;;;;;;;22.91;66.63;98794.13;5103148;28;20039;-64
2022/07/12 04:38:56;;;;;;;9.43;6.22;;;;;;;22.99;66.30;98790.84;5114384;28;20031;-64
2022/07/12 04:41:21;;;;;;;8.02;6.00;;;;;;;;;;5110923;28;20243;-64
2022/07/12 04:43:47;;;;;;;5.95;5.35;;;;;;;22.97;65.87;98797.22;5123617;28;20035;-64
2022/07/12 04:46:13;;;;;;;6.72;5.25;;;;;;;23.12;65.47;98793.28;5113134;28;20099;-63
2022/07/12 04:48:38;;;;;;;7.93;5.82;;;;;;;23.10;64.71;98789.88;5103176;28;20251;-63
2022/07/12 04:51:04;;;;;;;7.97;5.53;;;;;;;23.13;65.65;98792.31;5103070;28;20019;-64
2022/07/12 04:53:30;;;;;;;13.32;5.47;;;;;;;22.81;65.38;98756.31;5103144;28;20325;-64
2022/07/12 04:55:56;;;;;;;11.95;6.10;;;;;;;23.15;65.36;98803.56;5106770;28;20027;-64
2022/07/12 04:58:23;;;;;;;7.78;5.60;;;;;;;23.35;64.50;98804.44;5123362;28;20027;-64
2022/07/12 05:00:49;;;;;;;11.93;5.80;;;;;;;23.15;64.61;98808.84;5116893;28;20224;-64
2022/07/12 05:03:15;;;;;;;7.05;5.82;;;;;;;23.27;64.72;98797.19;5102648;28;20046;-64
2022/07/12 05:05:40;;;;;;;6.78;5.43;;;;;;;23.15;64.57;98805.38;5113133;28;20217;-64
2022/07/12 05:08:06;;;;;;;7.72;4.43;;;;;;;22.93;64.87;98808.06;5118109;28;20031;-64
2022/07/12 05:10:32;;;;;;;6.57;5.05;;;;;;;23.00;65.39;98799.59;5102617;28;20173;-64
2022/07/12 05:12:57;;;;;;;6.00;5.20;;;;;;;23.05;65.10;98813.25;5103000;28;20031;-63
2022/07/12 05:15:23;;;;;;;9.00;5.35;;;;;;;23.16;64.90;98807.88;5102872;28;20060;-67
2022/07/12 05:17:48;;;;;;;8.90;6.32;;;;;;;23.21;64.93;98800.38;5102856;28;20054;-64
2022/07/12 05:20:14;;;;;;;7.30;5.22;;;;;;;22.84;64.81;98771.88;5107346;28;20032;-64
2022/07/12 05:22:42;;;;;;;11.85;5.13;;;;;;;23.07;65.31;98816.56;5102579;28;20056;-64
2022/07/12 05:25:08;;;;;;;9.43;5.55;;;;;;;23.24;65.23;98804.53;5102980;28;20208;-65
2022/07/12 05:27:35;;;;;;;7.28;5.70;;;;;;;23.28;64.91;98803.31;5102323;28;20364;-64
2022/07/12 05:30:01;;;;;;;7.35;5.50;;;;;;;23.08;65.36;98819.06;5102785;28;20221;-64
2022/07/12 05:32:29;;;;;;;6.53;5.90;;;;;;;23.10;65.48;98816.28;5102669;28;20035;-66
2022/07/12 05:34:55;;;;;;;9.02;6.38;;;;;;;23.21;65.95;98802.19;5102525;28;20024;-66
2022/07/12 05:37:20;;;;;;;7.70;5.93;;;;;;;23.06;65.73;98807.81;5103077;28;20052;-67
2022/07/12 05:39:46;;;;;;;10.95;6.72;;;;;;;23.31;65.81;98804.84;5122457;28;20032;-67
2022/07/12 05:42:11;;;;;;;13.55;6.00;;;;;;;23.40;65.49;98806.66;5108782;28;20020;-67
2022/07/12 05:44:37;;;;;;;8.05;5.88;;;;;;;23.34;65.05;98799.28;5113425;28;20051;-67
2022/07/12 05:47:03;;;;;;;8.48;5.97;;;;;;;23.56;64.94;98806.97;5109464;28;20043;-67
2022/07/12 05:49:29;;;;;;;9.02;6.32;;;;;;;23.54;64.82;98808.06;5106549;28;20031;-67
2022/07/12 05:54:38;;;;;;;10.23;6.15;;;;;;;23.60;63.92;98818.09;5106458;28;20090;-66
2022/07/12 05:57:04;;;;;;;9.75;6.10;;;;;;;23.52;64.48;98810.03;5106436;28;20028;-66
2022/07/12 05:59:31;;;;;;;10.93;6.00;;;;;;;23.51;64.47;98817.09;5104868;28;20038;-67
2022/07/12 06:01:56;;;;;;;7.57;5.70;;;;;;;23.42;64.64;98818.78;5109756;28;20027;-67
2022/07/12 06:04:22;;;;;;;9.02;5.70;;;;;;;23.43;64.33;98809.88;5126853;28;20122;-65
2022/07/12 06:06:47;;;;;;;7.38;5.18;;;;;;;23.57;64.43;98810.44;5106529;28;20024;-67
2022/07/12 06:09:13;;;;;;;5.97;5.05;;;;;;;23.67;63.88;98823.66;5120267;28;20045;-68
2022/07/12 06:11:39;;;;;;;10.98;6.03;;;;;;;23.67;63.97;98810.44;5126378;28;20094;-67
2022/07/12 06:14:04;;;;;;;6.50;5.10;;;;;;;23.56;63.58;98811.44;5122367;28;20313;-64
2022/07/12 06:16:30;;;;;;;10.55;5.75;;;;;;;23.49;64.61;98810.31;5104685;28;20039;-67
2022/07/12 06:18:56;;;;;;;10.32;5.55;;;;;;;23.39;64.73;98813.75;5105819;28;20024;-67
2022/07/12 06:21:21;;;;;;;7.97;5.45;;;;;;;23.41;64.17;98829.47;5121140;28;20389;-67
2022/07/12 06:23:47;;;;;;;10.45;6.03;;;;;;;23.46;64.04;98815.84;5124741;28;20038;-66
2022/07/12 06:26:12;;;;;;;9.60;5.45;;;;;;;23.40;64.17;98817.22;5120766;28;20194;-66
2022/07/12 06:28:38;;;;;;;6.90;5.28;;;;;;;23.50;64.08;98822.53;5105886;28;20031;-65
2022/07/12 06:31:04;;;;;;;8.43;5.47;;;;;;;23.67;64.24;98828.94;5105641;28;20047;-66
2022/07/12 06:33:30;;;;;;;6.43;5.00;;;;;;;23.55;63.07;98825.63;5121366;28;20051;-66
2022/07/12 06:35:55;;;;;;;8.38;4.85;;;;;;;23.63;63.62;98824.91;5114238;28;20046;-67
2022/07/12 06:38:21;;;;;;;5.80;5.20;;;;;;;23.64;64.07;98829.22;5113510;28;20055;-67
2022/07/12 06:40:46;;;;;;;8.10;5.32;;;;;;;23.61;63.76;98825.91;5124132;28;20027;-69
2022/07/12 06:43:13;;;;;;;8.07;5.50;;;;;;;23.81;63.54;98839.13;5105379;28;20031;-67
2022/07/12 06:45:38;;;;;;;11.43;5.78;;;;;;;23.72;63.68;98826.75;5116918;28;20050;-68
2022/07/12 06:48:05;;;;;;;8.63;5.50;;;;;;;23.69;64.16;98833.13;5105188;28;20032;-68
2022/07/12 06:50:31;;;;;;;10.52;5.55;;;;;;;23.72;63.81;98838.16;5113143;28;20194;-67
2022/07/12 06:52:56;;;;;;;8.77;5.38;;;;;;;23.56;63.88;98835.22;5122469;28;20036;-67
2022/07/12 06:55:22;;;;;;;8.52;5.55;;;;;;;23.65;63.53;98839.66;5102927;28;20046;-67
2022/07/12 06:57:48;;;;;;;7.43;5.15;;;;;;;23.37;64.22;98833.38;5104975;28;20325;-69
2022/07/12 07:00:14;;;;;;;10.57;5.97;;;;;;;23.46;64.21;98832.56;5103635;28;20027;-67
2022/07/12 07:02:40;;;;;;;15.57;5.30;;;;;;;23.49;63.74;98831.47;5104592;28;20030;-68
2022/07/12 07:05:06;;;;;;;9.32;5.38;;;;;;;23.39;63.92;98834.06;5105270;28;20031;-68
2022/07/12 07:07:32;;;;;;;12.60;5.20;;;;;;;23.37;64.16;98842.16;5105027;28;20056;-69
2022/07/12 07:09:57;;;;;;;9.55;5.50;;;;;;;23.30;64.27;98833.09;5105101;28;20024;-67
2022/07/12 07:12:23;;;;;;;10.50;5.45;;;;;;;23.27;64.44;98838.63;5105009;28;20023;-68
2022/07/12 07:14:50;;;;;;;9.80;6.18;;;;;;;23.25;64.98;98840.56;5115206;28;20023;-69
2022/07/12 07:17:17;;;;;;;8.15;6.00;;;;;;;23.39;64.82;98836.72;5118731;28;20321;-70
2022/07/12 07:19:43;;;;;;;12.65;6.10;;;;;;;23.35;64.85;98827.38;5104959;28;20028;-69
2022/07/12 07:22:09;;;;;;;9.30;5.97;;;;;;;23.17;66.28;98843.88;5104727;28;20034;-68
2022/07/12 07:24:35;;;;;;;8.15;5.70;;;;;;;22.88;67.37;98844.56;5104749;28;20247;-68
2022/07/12 07:27:01;;;;;;;12.32;6.20;;;;;;;23.08;67.54;98844.66;5104513;28;20020;-67
2022/07/12 07:32:11;;;;;;;11.30;5.47;;;;;;;23.03;66.01;98841.56;5109478;28;20316;-67
2022/07/12 07:34:36;;;;;;;11.60;6.45;;;;;;;23.27;65.74;98846.53;5124193;28;20035;-66
2022/07/12 07:37:02;;;;;;;12.18;6.13;;;;;;;23.15;65.98;98835.25;5102538;28;20044;-67
2022/07/12 07:39:28;;;;;;;9.68;5.82;;;;;;;23.26;66.18;98842.25;5103189;28;20048;-67
2022/07/12 07:41:54;;;;;;;8.35;6.00;;;;;;;23.53;65.05;98838.13;5102797;28;20069;-67
2022/07/12 07:44:19;;;;;;;8.10;5.50;;;;;;;23.51;65.69;98835.59;5104130;28;20083;-66
2022/07/12 07:46:46;;;;;;;8.68;5.50;;;;;;;23.48;65.45;98846.47;5103835;28;20048;-66
2022/07/12 07:49:12;;;;;;;9.07;5.80;;;;;;;23.59;65.25;98845.53;5104364;28;20136;-66
2022/07/12 07:51:37;;;;;;;7.55;5.57;;;;;;;23.66;65.15;98857.22;5120792;28;20023;-66
2022/07/12 07:54:03;;;;;;;10.32;6.50;;;;;;;23.60;65.00;98849.81;5112496;28;20027;-66
2022/07/12 07:56:29;;;;;;;10.27;6.07;;;;;;;23.73;65.06;98847.75;5111209;28;20055;-66
2022/07/12 07:58:55;;;;;;;7.28;5.32;;;;;;;23.70;64.95;98857.75;5124349;28;20312;-66
2022/07/12 08:01:41;;;;;;;9.48;5.80;;;;;;;23.55;65.71;98862.63;5123328;28;20047;-66
2022/07/12 08:04:06;;;;;;;7.88;5.55;;;;;;;23.51;65.90;98861.22;5083734;28;20039;-66
2022/07/12 08:06:32;;;;;;;9.55;5.85;;;;;;;23.60;65.79;98866.53;5132038;27;20205;-66
2022/07/12 08:08:57;;;;;;;7.50;5.05;;;;;;;23.86;65.35;98862.53;5103854;28;20344;-66
2022/07/12 08:11:23;;;;;;;12.65;6.38;;;;;;;23.91;65.50;98862.97;5110011;28;20251;-66
2022/07/12 08:13:48;;;;;;;13.35;6.28;;;;;;;23.91;65.24;98861.16;5116537;28;20027;-66
2022/07/12 08:16:14;;;;;;;9.88;5.55;;;;;;;24.02;64.77;98870.75;5103768;28;20020;-67
2022/07/12 08:18:40;;;;;;;7.80;5.90;;;;;;;23.81;65.42;98875.31;5102819;28;20366;-64
2022/07/12 08:21:06;;;;;;;7.15;5.70;;;;;;;23.74;65.49;98867.09;5102514;28;20032;-65
2022/07/12 08:23:31;;;;;;;11.25;6.40;;;;;;;23.83;65.69;98879.50;5110825;28;20035;-65
2022/07/12 08:25:57;;;;;;;8.27;6.32;;;;;;;23.86;65.20;98875.75;5105621;28;20099;-66
2022/07/12 08:28:23;;;;;;;8.80;5.70;;;;;;;24.05;65.25;98877.59;5101492;28;20032;-65
2022/07/12 08:30:48;;;;;;;9.70;5.97;;;;;;;24.03;65.91;98876.88;5103092;28;20031;-65
2022/07/12 08:33:14;;;;;;;7.43;5.40;;;;;;;24.23;65.13;98883.03;5116387;28;20247;-66
2022/07/12 08:35:40;;;;;;;8.15;5.40;;;;;;;23.88;64.70;98874.66;5115509;28;20103;-63
2022/07/12 08:38:06;;;;;;;8.65;5.75;;;;;;;23.90;64.94;98877.16;5104212;28;20091;-66
2022/07/12 08:40:32;;;;;;;6.68;5.20;;;;;;;23.90;65.34;98877.16;5102850;28;20023;-67
2022/07/12 08:42:59;;;;;;;8.23;5.22;;;;;;;24.01;65.42;98889.41;5104680;28;20032;-68
2022/07/12 08:45:26;;;;;;;8.68;5.25;;;;;;;23.92;65.85;98886.63;5102667;28;20122;-67
2022/07/12 08:47:51;;;;;;;9.48;5.40;;;;;;;24.18;65.02;98894.00;5102725;28;20333;-68
2022/07/12 08:50:19;;;;;;;7.85;5.65;;;;;;;24.26;65.53;98890.69;5104678;28;20035;-67
2022/07/12 08:52:47;;;;;;;7.25;5.38;;;;;;;24.28;63.77;98849.88;5102639;28;20016;-67
2022/07/12 08:55:24;;;;;;;7.93;4.88;;;;;;;24.37;64.49;98895.81;5102820;28;20039;-68
2022/07/12 08:57:52;;;;;;;6.78;5.07;;;;;;;24.34;64.63;98858.19;5103125;28;20100;-67
2022/07/12 09:00:19;;;;;;;8.25;5.20;;;;;;;24.44;63.05;98907.50;5103195;28;20020;-62
2022/07/12 09:02:47;;;;;;;11.98;5.47;;;;;;;24.38;63.02;98910.72;5102487;28;20027;-63
2022/07/12 09:05:14;;;;;;;6.85;4.88;;;;;;;24.71;63.23;98907.78;5102738;28;20024;-64
2022/07/12 09:07:39;;;;;;;9.85;4.63;;;;;;;24.87;63.38;98905.38;5102260;28;20094;-64
2022/07/12 09:10:07;;;;;;;6.35;4.57;;;;;;;24.90;61.96;98877.75;5102942;28;20022;-64
2022/07/12 09:12:34;;;;;;;7.63;4.50;;;;;;;24.77;61.86;98908.03;5102164;28;20026;-64
2022/07/12 09:15:20;;;;;;;7.88;5.07;;;;;;;24.74;61.35;98926.88;5100225;28;20026;-63
2022/07/12 09:17:56;;;;;;;7.22;4.43;;;;;;;24.59;61.84;98901.78;5100462;28;20020;-63
2022/07/12 09:20:25;;;;;;;6.45;4.50;;;;;;;24.69;61.79;98930.94;5103529;28;20023;-63
2022/07/12 09:22:53;;;;;;;11.80;5.60;;;;;;;24.79;62.28;98937.03;5106941;28;20043;-63
2022/07/12 09:25:19;;;;;;;8.43;4.57;;;;;;;25.03;61.89;98933.91;5107064;28;20198;-63
2022/07/12 09:27:50;;;;;;;7.82;4.72;;;;;;;25.22;61.45;98930.34;5123847;28;20027;-64
2022/07/12 09:30:15;;;;;;;;;;;;;;;25.44;61.66;98928.31;5127878;28;20036;-63
2022/07/12 09:36:06;;;;;;;4.93;4.30;;;;;;;25.31;60.04;98929.50;5118814;28;20040;-63
2022/07/12 09:38:53;;;;;;;5.80;4.57;;;;;;;25.46;56.55;98932.50;5116362;28;20031;-64
2022/07/12 09:41:21;;;;;;;6.03;4.35;;;;;;;25.58;58.02;98924.34;5122181;28;20024;-63
2022/07/12 09:43:47;;;;;;;7.40;4.75;;;;;;;25.44;58.28;98925.66;5106433;28;20052;-64
2022/07/12 09:46:17;;;;;;;6.78;4.28;;;;;;;25.19;58.23;98924.50;5106515;28;20047;-63
2022/07/12 09:48:44;;;;;;;4.45;4.07;;;;;;;25.18;57.16;98928.94;5122029;28;20042;-64
2022/07/12 09:51:14;;;;;;;7.72;3.80;;;;;;;25.04;57.18;98889.69;5115146;28;20044;-64
2022/07/12 09:53:51;;;;;;;6.82;4.10;;;;;;;25.43;54.63;98926.66;5105757;28;20070;-63
2022/07/12 09:56:21;;;;;;;4.28;3.88;;;;;;;25.55;55.40;98938.72;5109910;28;20279;-63
2022/07/12 09:58:54;;;;;;;7.30;3.90;;;;;;;25.65;56.20;98950.13;5126764;27;20253;-64
2022/07/12 10:01:21;;;;;;;5.68;3.97;;;;;;;25.25;56.73;98923.91;5126374;28;20035;-63
2022/07/12 10:03:48;;;;;;;6.68;3.95;;;;;;;25.66;55.62;98943.81;5126325;28;20027;-64
2022/07/12 10:06:23;;;;;;;7.05;4.40;;;;;;;25.45;56.15;98909.63;5126534;28;20117;-63
2022/07/12 10:08:49;;;;;;;6.40;4.10;;;;;;;25.45;56.61;98943.25;5117606;28;20031;-63
2022/07/12 10:11:14;;;;;;;6.93;4.05;;;;;;;24.99;57.17;98920.09;5106129;28;20028;-63
2022/07/12 10:13:40;;;;;;;8.05;4.20;;;;;;;25.13;57.19;98947.13;5105752;28;20255;-63
2022/07/12 10:16:09;;;;;;;7.38;4.38;;;;;;;25.08;56.94;98910.47;5106216;28;20032;-63
2022/07/12 10:18:34;;;;;;;8.07;4.05;;;;;;;25.49;56.96;98944.63;5105777;28;20024;-63
2022/07/12 10:21:00;;;;;;;4.55;4.05;;;;;;;25.64;57.05;98945.81;5105869;28;20252;-63
2022/07/12 10:23:25;;;;;;;5.90;4.10;;;;;;;25.49;57.09;98944.63;5105896;28;20035;-63
2022/07/12 10:25:51;;;;;;;4.50;4.10;;;;;;;25.39;57.55;98952.63;5105823;28;20020;-63
2022/07/12 10:28:17;;;;;;;5.95;4.20;;;;;;;25.28;58.01;98952.78;5105912;28;20314;-63
2022/07/12 10:30:50;;;;;;;6.25;4.22;;;;;;;25.61;57.52;98958.50;5105501;28;20317;-64
2022/07/12 10:33:19;;;;;;;5.38;3.60;;;;;;;25.30;56.21;98935.75;5105694;28;20031;-64
2022/07/12 10:35:59;;;;;;;6.40;5.80;;;;;;;25.77;56.28;98979.13;5105624;28;20051;-65
2022/07/12 10:38:25;;;;;;;7.45;3.90;;;;;;;25.87;55.80;98955.16;5102241;28;20028;-62
2022/07/12 10:40:52;;;;;;;5.90;4.50;;;;;;;25.90;57.06;98974.28;5125920;28;20094;-64
2022/07/12 10:44:04;;;;;;;5.45;4.10;;;;;;;25.73;56.00;98983.88;5126014;28;20027;-64
2022/07/12 10:46:16;;;;;;;6.22;4.18;;;;;;;25.52;57.22;98976.16;5105785;28;20228;-64
2022/07/12 10:48:42;;;;;;;10.90;4.07;;;;;;;25.21;56.34;98971.09;5121470;28;20034;-65
2022/07/12 10:51:21;;;;;;;6.97;3.97;;;;;;;25.22;57.11;98991.28;5114767;28;20020;-65
2022/07/12 10:53:50;;;;;;;6.35;3.40;;;;;;;25.25;56.15;98979.56;5105204;28;20032;-66
2022/07/12 10:56:18;;;;;;;5.80;3.70;;;;;;;25.04;56.42;98940.03;5105373;28;20087;-65
2022/07/12 10:58:49;;;;;;;4.82;3.42;;;;;;;25.13;55.65;98937.34;5105253;28;20016;-65
2022/07/12 11:01:18;;;;;;;6.03;3.15;;;;;;;25.49;54.13;98965.84;5105398;28;20038;-65
2022/07/12 11:03:49;;;;;;;5.20;2.70;;;;;;;25.49;53.59;98949.94;5105036;28;20066;-64
2022/07/12 11:06:25;;;;;;;7.00;2.80;;;;;;;25.79;54.81;98987.75;5105427;28;20030;-65
2022/07/12 11:08:57;;;;;;;5.03;2.20;;;;;;;25.87;54.81;98992.31;5105125;28;20086;-65
2022/07/12 11:11:25;;;;;;;5.63;2.38;;;;;;;25.84;50.19;99002.25;5102154;28;20087;-65
2022/07/12 11:13:52;;;;;;;5.57;2.08;;;;;;;25.88;50.06;98988.69;5105188;28;20070;-63
2022/07/12 11:16:18;;;;;;;7.43;2.05;;;;;;;25.96;49.45;98992.25;5104787;28;20035;-64
2022/07/12 11:18:44;;;;;;;4.53;1.67;;;;;;;26.06;50.36;98994.88;5104308;28;20028;-63
2022/07/12 11:21:10;;;;;;;3.28;1.63;;;;;;;26.03;49.13;99004.97;5104491;28;20032;-64
2022/07/12 11:23:36;;;;;;;6.53;1.40;;;;;;;25.93;47.27;98989.91;5104311;28;20395;-64
2022/07/12 11:26:03;;;;;;;5.30;1.50;;;;;;;25.81;46.94;98970.72;5104210;28;20083;-64
2022/07/12 11:28:31;;;;;;;2.17;1.35;;;;;;;26.07;47.00;99001.88;5104392;28;20042;-65
2022/07/12 11:31:05;;;;;;;4.97;1.40;;;;;;;25.57;45.82;98949.19;5103986;28;20016;-64
2022/07/12 11:33:34;;;;;;;6.28;1.42;;;;;;;25.93;46.40;98960.72;5102541;28;20243;-63
2022/07/12 11:36:03;;;;;;;3.65;1.35;;;;;;;26.17;46.46;98985.88;5104078;28;20182;-60
2022/07/12 11:38:29;;;;;;;2.28;1.27;;;;;;;26.44;46.88;99002.72;5106452;28;20032;-62
2022/07/12 11:40:56;;;;;;;3.47;1.55;;;;;;;26.31;46.53;98998.63;5104859;28;20644;-62
2022/07/12 11:43:23;;;;;;;3.25;1.17;;;;;;;26.28;46.77;99006.91;5101916;28;20027;-62